Time;durP1;ratioP1;P1;durP2;ratioP2;P2;SDS_P1;SDS_P2;PMS_P1;PMS_P2;Temp;Humidity;BMP_temperature;BMP_pressure;BME280_temperature;BME280_humidity;BME280_pressure;Samples;Min_cycle;Max_cycle;Signal;HPM_P1;HPM_P2
2022/01/24 00:01:29;;;;;;;;;;;6.50;99.90;;;;;;5044063;28;20039;-73
2022/01/24 00:03:59;;;;;;;20.67;11.38;;;6.50;99.90;;;;;;5044471;28;19909;-73
2022/01/24 00:06:25;;;;;;;25.83;12.57;;;6.50;99.90;;;;;;5048285;28;20040;-74
2022/01/24 00:08:51;;;;;;;17.98;11.20;;;6.50;99.90;;;;;;5042300;28;20413;-74
2022/01/24 00:11:21;;;;;;;;;;;6.50;99.90;;;;;;5048389;28;20041;-73
2022/01/24 00:26:54;;;;;;;23.92;12.63;;;6.50;99.90;;;;;;5044629;28;20099;-73
2022/01/24 00:29:20;;;;;;;;;;;6.50;99.90;;;;;;5045071;28;20164;-73
2022/01/24 00:31:46;;;;;;;22.20;12.07;;;6.50;99.90;;;;;;5047800;28;19913;-73
2022/01/24 00:34:12;;;;;;;;;;;6.60;99.90;;;;;;5045518;28;20024;-73
2022/01/24 00:36:39;;;;;;;24.05;12.70;;;6.60;99.90;;;;;;5047606;28;19915;-73
2022/01/24 00:39:05;;;;;;;22.80;11.88;;;6.60;99.90;;;;;;5044176;28;20029;-73
2022/01/24 00:41:37;;;;;;;21.92;13.40;;;6.60;99.90;;;;;;5046478;28;20017;-73
2022/01/24 00:46:45;;;;;;;23.85;12.80;;;6.70;99.90;;;;;;5044593;28;20029;-73
2022/01/24 00:57:01;;;;;;;34.42;15.95;;;6.60;99.90;;;;;;5046379;28;20036;-74
2022/01/24 00:59:26;;;;;;;;;;;6.60;99.90;;;;;;5045024;28;20033;-73
2022/01/24 01:01:52;;;;;;;19.02;12.35;;;6.50;99.90;;;;;;5045583;28;20039;-73
2022/01/24 01:04:20;;;;;;;22.27;12.93;;;6.50;99.90;;;;;;5047013;28;20280;-74
2022/01/24 01:06:46;;;;;;;23.90;14.55;;;6.50;99.90;;;;;;5045578;28;20456;-73
2022/01/24 01:20:36;;;;;;;21.80;13.27;;;6.60;99.90;;;;;;5044242;28;20036;-73
2022/01/24 01:23:02;;;;;;;24.23;12.80;;;6.60;99.90;;;;;;5042278;28;20492;-74
2022/01/24 01:25:27;;;;;;;;;;;6.60;99.90;;;;;;5044727;28;20029;-73
2022/01/24 01:27:54;;;;;;;22.90;13.40;;;6.60;99.90;;;;;;5045169;28;19975;-73
2022/01/24 01:30:25;;;;;;;21.30;13.27;;;6.60;99.90;;;;;;5043130;28;20054;-73
2022/01/24 01:33:04;;;;;;;30.30;15.25;;;6.60;99.90;;;;;;5042099;28;20072;-73
2022/01/24 01:38:37;;;;;;;23.75;13.73;;;6.70;99.90;;;;;;5045252;28;20095;-73
2022/01/24 01:57:16;;;;;;;;;;;6.70;99.90;;;;;;5039865;28;20044;-73
2022/01/24 01:59:42;;;;;;;21.20;12.50;;;6.60;99.90;;;;;;5044765;28;20026;-74
2022/01/24 02:02:08;;;;;;;26.52;15.07;;;6.60;99.90;;;;;;5042400;28;20040;-74
2022/01/24 02:04:34;;;;;;;26.30;14.55;;;6.60;99.90;;;;;;5043985;28;20086;-73
2022/01/24 02:07:00;;;;;;;;;;;6.60;99.90;;;;;;5041290;28;20040;-73
2022/01/24 02:09:33;;;;;;;25.65;13.98;;;6.60;99.90;;;;;;5044122;28;20320;-73
2022/01/24 02:11:59;;;;;;;24.88;14.73;;;6.60;99.90;;;;;;5041988;28;20393;-74
2022/01/24 02:14:31;;;;;;;;;;;6.60;99.90;;;;;;5046132;28;20121;-73
2022/01/24 02:17:06;;;;;;;21.85;12.02;;;6.60;99.90;;;;;;5043789;28;19913;-73
2022/01/24 02:24:31;;;;;;;;;;;6.50;99.90;;;;;;5045894;28;20112;-73
2022/01/24 02:26:58;;;;;;;21.52;13.05;;;6.50;99.90;;;;;;5043344;28;19942;-74
2022/01/24 02:32:08;;;;;;;19.02;12.35;;;6.50;99.90;;;;;;5043307;28;20296;-73
2022/01/24 02:34:36;;;;;;;;;;;6.50;99.90;;;;;;5043360;28;20021;-73
2022/01/24 02:37:05;;;;;;;23.80;12.68;;;6.40;99.90;;;;;;5042851;28;19942;-74
2022/01/24 02:39:46;;;;;;;23.63;13.40;;;6.40;99.90;;;;;;5044592;28;20028;-73
2022/01/24 02:53:16;;;;;;;25.77;13.43;;;6.40;99.90;;;;;;5044818;28;20029;-73
2022/01/24 02:55:42;;;;;;;;;;;6.40;99.90;;;;;;5049911;28;20477;-73
2022/01/24 02:58:09;;;;;;;25.17;13.32;;;6.40;99.90;;;;;;5046239;28;19917;-73
2022/01/24 03:00:35;;;;;;;24.88;14.13;;;6.40;99.90;;;;;;5046977;28;20033;-73
2022/01/24 03:03:03;;;;;;;23.20;12.95;;;6.40;99.90;;;;;;5044440;28;20358;-73
2022/01/24 03:05:29;;;;;;;24.75;15.45;;;6.40;99.90;;;;;;5047732;28;20397;-73
2022/01/24 03:07:54;;;;;;;;;;;6.40;99.90;;;;;;5046694;28;20025;-73
2022/01/24 03:10:29;;;;;;;21.27;12.73;;;6.40;99.90;;;;;;5048643;28;20297;-73
2022/01/24 03:13:56;;;;;;;23.73;14.20;;;6.40;99.90;;;;;;5047252;28;20017;-73
2022/01/24 03:15:52;;;;;;;20.65;13.00;;;6.40;99.90;;;;;;5038354;28;20033;-73
2022/01/24 03:18:19;;;;;;;24.60;14.65;;;6.30;99.90;;;;;;5048520;28;20024;-73
2022/01/24 03:20:45;;;;;;;21.63;13.68;;;6.30;99.90;;;;;;5047062;28;20413;-73
2022/01/24 03:23:11;;;;;;;;;;;6.30;99.90;;;;;;5047759;28;20108;-73
2022/01/24 03:25:37;;;;;;;23.90;14.32;;;6.30;99.90;;;;;;5048079;28;20339;-73
2022/01/24 03:28:04;;;;;;;;;;;6.30;99.90;;;;;;5046419;28;20485;-73
2022/01/24 03:30:29;;;;;;;20.98;13.05;;;6.30;99.90;;;;;;5046868;28;20003;-73
2022/01/24 03:32:56;;;;;;;;;;;6.40;99.90;;;;;;5047892;28;20109;-74
2022/01/24 03:35:21;;;;;;;23.83;13.30;;;6.40;99.90;;;;;;5047252;28;20464;-73
2022/01/24 03:37:47;;;;;;;;;;;6.40;99.90;;;;;;5048797;28;20112;-73
2022/01/24 03:40:12;;;;;;;22.95;13.20;;;6.50;99.90;;;;;;5047059;28;20409;-73
2022/01/24 03:42:38;;;;;;;25.92;14.70;;;6.40;99.90;;;;;;5045867;28;20033;-73
2022/01/24 03:45:06;;;;;;;;;;;6.40;99.90;;;;;;5046219;28;20375;-73
2022/01/24 03:50:03;;;;;;;29.70;13.73;;;6.40;99.90;;;;;;5046717;28;20032;-73
2022/01/24 03:52:31;;;;;;;22.45;13.23;;;6.40;99.90;;;;;;5047451;28;20025;-73
2022/01/24 03:54:58;;;;;;;24.10;14.68;;;6.40;99.90;;;;;;5047192;28;20066;-73
2022/01/24 03:57:24;;;;;;;19.55;14.40;;;6.40;99.90;;;;;;5047875;28;20047;-73
2022/01/24 03:59:50;;;;;;;23.13;15.55;;;6.40;99.90;;;;;;5043476;28;20022;-73
2022/01/24 04:02:18;;;;;;;;;;;6.40;99.90;;;;;;5046017;28;20029;-73
2022/01/24 04:04:43;;;;;;;22.42;12.65;;;6.40;99.90;;;;;;5045963;28;19920;-73
2022/01/24 04:07:09;;;;;;;;;;;6.30;99.90;;;;;;5046630;28;20026;-73
2022/01/24 04:09:35;;;;;;;21.30;13.82;;;6.30;99.90;;;;;;5046948;28;19913;-73
2022/01/24 04:12:02;;;;;;;;;;;6.30;99.90;;;;;;5047723;28;20021;-73
2022/01/24 04:14:38;;;;;;;25.23;14.33;;;6.30;99.90;;;;;;5044159;28;19923;-73
2022/01/24 04:22:30;;;;;;;25.83;15.55;;;6.30;99.90;;;;;;5046142;28;20033;-74
2022/01/24 04:25:01;;;;;;;24.92;14.75;;;6.40;99.90;;;;;;5048120;28;20381;-74
2022/01/24 04:27:28;;;;;;;26.08;14.52;;;6.40;99.90;;;;;;5046030;28;20257;-74
2022/01/24 04:29:54;;;;;;;23.73;14.70;;;6.40;99.90;;;;;;5046622;28;20036;-74
2022/01/24 04:32:20;;;;;;;;;;;6.40;99.90;;;;;;5045723;28;20032;-73
2022/01/24 04:34:46;;;;;;;23.10;14.32;;;6.40;99.90;;;;;;5047488;28;19905;-73
2022/01/24 04:37:11;;;;;;;;;;;6.40;99.90;;;;;;5044007;28;20025;-73
2022/01/24 04:39:37;;;;;;;23.75;13.35;;;6.40;99.90;;;;;;5041433;28;19967;-73
2022/01/24 04:42:09;;;;;;;;;;;6.40;99.90;;;;;;5047260;28;20401;-73
2022/01/24 04:44:51;;;;;;;25.58;15.40;;;6.40;99.90;;;;;;5048291;28;19917;-73
2022/01/24 04:52:37;;;;;;;31.45;16.10;;;6.40;99.90;;;;;;5044654;28;20356;-73
2022/01/24 04:55:03;;;;;;;25.08;14.90;;;6.40;99.90;;;;;;5047794;28;20493;-73
2022/01/24 04:57:29;;;;;;;;;;;6.40;99.90;;;;;;5044795;28;20073;-73
2022/01/24 04:59:59;;;;;;;24.52;15.52;;;6.40;99.90;;;;;;5043193;28;20254;-73
2022/01/24 05:02:26;;;;;;;22.42;14.13;;;6.30;99.90;;;;;;5042128;28;20060;-74
2022/01/24 05:04:53;;;;;;;24.00;14.98;;;6.30;99.90;;;;;;5043459;28;20050;-74
2022/01/24 05:07:18;;;;;;;24.58;16.25;;;6.20;99.90;;;;;;5043006;28;20111;-74
2022/01/24 05:09:58;;;;;;;;;;;6.30;99.90;;;;;;5045730;28;20115;-74
2022/01/24 05:21:09;;;;;;;30.38;16.30;;;6.20;99.90;;;;;;5043732;28;19962;-74
2022/01/24 05:25:51;;;;;;;;;;;6.30;99.90;;;;;;5044898;28;20418;-73
2022/01/24 05:28:17;;;;;;;25.83;15.38;;;6.30;99.90;;;;;;5043337;28;19982;-74
2022/01/24 05:30:42;;;;;;;;;;;6.30;99.90;;;;;;5039839;28;20032;-74
2022/01/24 05:33:08;;;;;;;26.38;15.77;;;6.30;99.90;;;;;;5045910;28;19924;-74
2022/01/24 05:35:33;;;;;;;;;;;6.30;99.90;;;;;;5046767;28;20124;-74
2022/01/24 05:37:59;;;;;;;23.90;14.85;;;6.40;99.90;;;;;;5044952;28;19909;-74
2022/01/24 05:40:24;;;;;;;;;;;6.30;99.90;;;;;;5043876;28;20060;-74
2022/01/24 05:42:50;;;;;;;25.40;13.82;;;6.30;99.90;;;;;;5042638;28;19924;-74
2022/01/24 05:45:15;;;;;;;;;;;6.40;99.90;;;;;;5045368;28;20043;-75
2022/01/24 05:47:41;;;;;;;24.73;15.40;;;6.40;99.90;;;;;;5045381;28;20257;-73
2022/01/24 05:50:07;;;;;;;;;;;6.30;99.90;;;;;;5044818;28;20117;-74
2022/01/24 05:52:34;;;;;;;23.20;15.90;;;6.40;99.90;;;;;;5041329;28;19909;-73
2022/01/24 05:55:00;;;;;;;25.75;15.77;;;6.40;99.90;;;;;;5040676;28;20494;-74
2022/01/24 05:57:25;;;;;;;;;;;6.40;99.90;;;;;;5044645;28;20036;-74
2022/01/24 05:59:51;;;;;;;24.23;16.27;;;6.40;99.90;;;;;;5045284;28;19909;-75
2022/01/24 06:02:16;;;;;;;;;;;6.40;99.90;;;;;;5043493;28;20025;-76
2022/01/24 06:04:42;;;;;;;25.35;15.52;;;6.40;99.90;;;;;;5044222;28;19917;-76
2022/01/24 06:07:07;;;;;;;;;;;6.40;99.90;;;;;;5044817;28;20129;-76
2022/01/24 06:09:33;;;;;;;24.23;16.73;;;6.40;99.90;;;;;;5044975;28;19909;-76
2022/01/24 06:11:58;;;;;;;;;;;6.50;99.90;;;;;;5045969;28;20082;-77
2022/01/24 06:14:24;;;;;;;22.42;14.05;;;6.50;99.90;;;;;;5043652;28;19999;-75
2022/01/24 06:16:49;;;;;;;;;;;6.50;99.90;;;;;;5042943;28;20112;-75
2022/01/24 06:19:15;;;;;;;24.65;14.35;;;6.50;99.90;;;;;;5043620;28;20015;-74
2022/01/24 06:21:41;;;;;;;;;;;6.50;99.90;;;;;;5045379;28;20104;-75
2022/01/24 06:24:07;;;;;;;18.27;13.85;;;6.50;99.90;;;;;;5044876;28;20273;-75
2022/01/24 06:26:33;;;;;;;22.73;14.75;;;6.50;99.90;;;;;;5046395;28;20086;-75
2022/01/24 06:28:58;;;;;;;;;;;6.40;99.90;;;;;;5046567;28;20033;-73
2022/01/24 06:31:24;;;;;;;31.20;18.02;;;6.40;99.90;;;;;;5048436;28;19931;-73
2022/01/24 06:33:49;;;;;;;;;;;6.40;99.90;;;;;;5045238;28;20394;-72
2022/01/24 06:36:16;;;;;;;22.20;14.35;;;6.90;99.90;;;;;;5046636;28;20508;-73
2022/01/24 06:38:41;;;;;;;20.63;12.65;;;7.10;99.90;;;;;;5045724;28;20124;-73
2022/01/24 06:41:07;;;;;;;;;;;7.00;99.90;;;;;;5046626;28;20767;-73
2022/01/24 06:43:32;;;;;;;22.33;13.75;;;7.00;99.90;;;;;;5048515;28;20306;-73
2022/01/24 06:45:58;;;;;;;26.88;15.70;;;6.80;99.90;;;;;;5049282;28;20032;-73
2022/01/24 06:48:23;;;;;;;30.55;18.15;;;6.70;99.90;;;;;;5045972;28;20049;-73
2022/01/24 06:50:50;;;;;;;;;;;6.60;99.90;;;;;;5049900;28;20057;-73
2022/01/24 06:53:15;;;;;;;30.63;17.88;;;6.60;99.90;;;;;;5047754;28;19950;-73
2022/01/24 06:55:41;;;;;;;;;;;6.50;99.90;;;;;;5050278;28;20436;-73
2022/01/24 06:58:07;;;;;;;30.02;16.92;;;6.40;99.90;;;;;;5048803;28;19921;-73
2022/01/24 07:00:33;;;;;;;;;;;6.40;99.90;;;;;;5051225;28;20505;-73
2022/01/24 07:02:58;;;;;;;26.83;18.00;;;6.40;99.90;;;;;;5049446;28;19954;-73
2022/01/24 07:05:25;;;;;;;25.23;17.10;;;6.50;99.90;;;;;;5050564;28;20116;-73
2022/01/24 07:07:51;;;;;;;29.35;18.60;;;6.50;99.90;;;;;;5048840;28;20033;-73
2022/01/24 07:10:16;;;;;;;;;;;6.40;99.90;;;;;;5049489;28;20036;-73
2022/01/24 07:12:42;;;;;;;30.63;19.05;;;6.40;99.90;;;;;;5050490;28;19904;-73
2022/01/24 07:15:11;;;;;;;;;;;6.40;99.90;;;;;;5049066;28;20033;-73
2022/01/24 07:20:22;;;;;;;33.90;21.52;;;6.40;99.90;;;;;;5040202;28;20063;-72
2022/01/24 07:22:47;;;;;;;;;;;6.50;99.90;;;;;;5046890;28;20033;-72
2022/01/24 07:25:13;;;;;;;32.22;20.13;;;6.50;99.90;;;;;;5049078;28;19908;-73
2022/01/24 07:27:39;;;;;;;35.15;19.50;;;6.50;99.90;;;;;;5049462;28;20040;-73
2022/01/24 07:30:05;;;;;;;34.83;18.90;;;6.50;99.90;;;;;;5048281;28;20025;-72
2022/01/24 07:32:31;;;;;;;38.55;23.08;;;6.50;99.90;;;;;;5044991;28;20105;-73
2022/01/24 07:34:57;;;;;;;;;;;6.50;99.90;;;;;;5044249;28;20048;-73
2022/01/24 07:37:24;;;;;;;46.55;26.17;;;6.50;99.90;;;;;;5038551;28;19995;-73
2022/01/24 07:39:51;;;;;;;31.45;18.33;;;6.50;99.90;;;;;;5044183;28;20029;-73
2022/01/24 07:42:28;;;;;;;32.38;20.00;;;6.50;99.90;;;;;;5049248;28;20041;-73
2022/01/24 07:44:53;;;;;;;30.73;20.05;;;6.50;99.90;;;;;;5046652;28;20024;-74
2022/01/24 07:47:19;;;;;;;32.72;19.05;;;6.50;99.90;;;;;;5046121;28;20055;-72
2022/01/24 07:49:44;;;;;;;39.80;22.60;;;6.50;99.90;;;;;;5045454;28;20021;-73
2022/01/24 07:52:10;;;;;;;;;;;6.50;99.90;;;;;;5045749;28;20278;-73
2022/01/24 07:54:35;;;;;;;31.83;20.02;;;6.50;99.90;;;;;;5046124;28;19946;-73
2022/01/24 07:57:01;;;;;;;34.50;22.77;;;6.50;99.90;;;;;;5044320;28;20025;-73
2022/01/24 07:59:27;;;;;;;;;;;6.50;99.90;;;;;;5042654;28;20032;-72
2022/01/24 08:01:52;;;;;;;34.67;23.10;;;6.50;99.90;;;;;;5045477;28;19974;-72
2022/01/24 08:04:18;;;;;;;38.28;22.13;;;6.50;99.90;;;;;;5043940;28;20039;-73
2022/01/24 08:06:46;;;;;;;;;;;6.50;99.90;;;;;;5045758;28;20037;-72
2022/01/24 08:09:12;;;;;;;39.30;22.83;;;6.50;99.90;;;;;;5043875;28;19925;-73
2022/01/24 08:11:37;;;;;;;;;;;6.50;99.90;;;;;;5047497;28;20033;-74
2022/01/24 08:14:03;;;;;;;42.83;21.60;;;6.60;99.90;;;;;;5045676;28;19923;-75
2022/01/24 08:16:28;;;;;;;;;;;6.50;99.90;;;;;;5043758;28;20033;-74
2022/01/24 08:18:55;;;;;;;31.52;19.30;;;6.60;99.90;;;;;;5044357;28;19977;-77
2022/01/24 08:21:21;;;;;;;34.78;21.30;;;6.50;99.90;;;;;;5045150;28;20033;-75
2022/01/24 08:23:47;;;;;;;;;;;6.50;99.90;;;;;;5043221;28;20056;-75
2022/01/24 08:26:13;;;;;;;39.13;21.83;;;6.50;99.90;;;;;;5044677;28;19958;-75
2022/01/24 08:28:38;;;;;;;33.40;20.48;;;6.50;99.90;;;;;;5045694;28;20044;-75
2022/01/24 08:31:04;;;;;;;37.25;20.58;;;6.50;99.90;;;;;;5043776;28;20397;-76
2022/01/24 08:33:29;;;;;;;;;;;6.60;99.90;;;;;;5047446;28;20025;-75
2022/01/24 08:35:55;;;;;;;33.92;21.63;;;6.60;99.90;;;;;;5046126;28;19909;-74
2022/01/24 08:38:21;;;;;;;;;;;6.60;99.90;;;;;;5043027;28;20608;-73
2022/01/24 08:40:50;;;;;;;43.15;23.35;;;6.50;99.90;;;;;;5045953;28;20357;-72
2022/01/24 08:43:23;;;;;;;32.78;19.60;;;6.50;99.90;;;;;;5044812;28;20090;-73
2022/01/24 08:45:57;;;;;;;33.38;20.42;;;6.50;99.90;;;;;;5047553;28;20044;-72
2022/01/24 08:48:23;;;;;;;36.13;21.05;;;6.50;99.90;;;;;;5047038;28;20039;-75
2022/01/24 08:50:49;;;;;;;;;;;6.50;99.90;;;;;;5045568;28;20020;-74
2022/01/24 08:53:15;;;;;;;38.45;20.83;;;6.50;99.90;;;;;;5043924;28;19947;-74
2022/01/24 08:55:40;;;;;;;;;;;6.60;99.90;;;;;;5045763;28;20517;-71
2022/01/24 08:58:13;;;;;;;30.73;20.05;;;6.60;99.90;;;;;;5044025;28;19908;-73
2022/01/24 09:00:38;;;;;;;31.50;20.05;;;6.60;99.90;;;;;;5047170;28;20029;-72
2022/01/24 09:03:04;;;;;;;;;;;6.60;99.90;;;;;;5047625;28;20131;-73
2022/01/24 09:05:34;;;;;;;34.47;19.08;;;6.60;99.90;;;;;;5045784;28;20371;-72
2022/01/24 09:08:00;;;;;;;38.70;22.00;;;6.60;99.90;;;;;;5045826;28;20640;-73
2022/01/24 09:10:26;;;;;;;;;;;6.60;99.90;;;;;;5043058;28;20124;-73
2022/01/24 09:12:51;;;;;;;39.17;23.85;;;6.60;99.90;;;;;;5040637;28;19917;-72
2022/01/24 09:15:17;;;;;;;34.00;22.60;;;6.70;99.90;;;;;;5044445;28;20366;-74
2022/01/24 09:17:43;;;;;;;;;;;6.60;99.90;;;;;;5047820;28;20029;-73
2022/01/24 09:20:10;;;;;;;36.13;20.45;;;6.70;99.90;;;;;;5044149;28;20007;-74
2022/01/24 09:22:35;;;;;;;32.75;20.17;;;6.70;99.90;;;;;;5043145;28;20039;-74
2022/01/24 09:25:02;;;;;;;;;;;6.70;99.90;;;;;;5047284;28;20032;-74
2022/01/24 09:27:30;;;;;;;33.92;18.98;;;6.80;99.90;;;;;;5040736;28;19912;-74
2022/01/24 09:29:56;;;;;;;39.17;21.77;;;6.80;99.90;;;;;;5045301;28;20028;-74
2022/01/24 09:32:21;;;;;;;46.08;26.05;;;6.80;99.90;;;;;;5045133;28;20025;-74
2022/01/24 09:34:47;;;;;;;;;;;6.70;99.90;;;;;;5043669;28;20036;-75
2022/01/24 09:37:12;;;;;;;36.25;20.38;;;6.80;99.90;;;;;;5043597;28;20372;-75
2022/01/24 09:39:38;;;;;;;;;;;6.80;99.90;;;;;;5043209;28;20351;-73
2022/01/24 09:42:06;;;;;;;35.33;19.05;;;6.80;99.90;;;;;;5041194;28;19916;-73
2022/01/24 09:44:32;;;;;;;31.75;20.40;;;6.80;99.90;;;;;;5040997;28;20032;-74
2022/01/24 09:46:58;;;;;;;35.40;20.10;;;6.80;99.90;;;;;;5045150;28;20025;-74
2022/01/24 09:49:23;;;;;;;;;;;6.70;99.90;;;;;;5045000;28;20025;-74
2022/01/24 09:51:50;;;;;;;32.15;20.05;;;6.70;99.90;;;;;;5041393;28;19913;-73
2022/01/24 09:54:16;;;;;;;41.15;21.60;;;6.70;99.90;;;;;;5045750;28;20497;-74
2022/01/24 09:56:41;;;;;;;;;;;6.70;99.90;;;;;;5046247;28;20061;-73
2022/01/24 09:59:07;;;;;;;31.58;19.10;;;6.70;99.90;;;;;;5040614;28;21378;-73
2022/01/24 10:01:33;;;;;;;;;;;6.70;99.90;;;;;;5042627;28;20025;-75
2022/01/24 10:04:17;;;;;;;37.70;20.30;;;6.60;99.90;;;;;;5040076;28;20354;-73
2022/01/24 10:07:15;;;;;;;41.35;19.85;;;6.70;99.90;;;;;;5044343;28;20040;-74
2022/01/24 10:09:51;;;;;;;35.47;18.88;;;6.70;99.90;;;;;;5042162;28;20064;-74
2022/01/24 10:12:29;;;;;;;35.00;21.48;;;6.80;99.90;;;;;;5043265;28;20594;-75
2022/01/24 10:17:43;;;;;;;37.28;20.98;;;6.90;99.90;;;;;;5043869;28;20040;-77
2022/01/24 10:20:19;;;;;;;33.47;19.40;;;7.00;99.90;;;;;;5042501;28;20044;-75
2022/01/24 10:23:00;;;;;;;;;;;7.00;99.90;;;;;;5044045;28;20048;-74
2022/01/24 10:25:25;;;;;;;33.63;18.67;;;7.00;99.90;;;;;;5045394;28;19989;-74
2022/01/24 10:27:58;;;;;;;;;;;7.00;99.90;;;;;;5044333;28;20203;-74
2022/01/24 10:30:27;;;;;;;39.08;20.70;;;6.90;99.90;;;;;;5041554;28;19917;-73
2022/01/24 10:32:54;;;;;;;31.38;19.13;;;7.00;99.90;;;;;;5040845;28;20040;-74
2022/01/24 10:35:32;;;;;;;32.42;19.13;;;7.00;99.90;;;;;;5044953;28;20098;-73
2022/01/24 10:43:37;;;;;;;31.05;19.30;;;7.10;99.90;;;;;;5044938;28;20045;-73
2022/01/24 10:46:03;;;;;;;32.92;18.08;;;7.10;99.90;;;;;;5043036;28;20048;-77
2022/01/24 10:48:34;;;;;;;35.85;20.15;;;7.10;99.90;;;;;;5042103;28;20029;-74
2022/01/24 10:51:06;;;;;;;31.98;19.88;;;7.10;99.90;;;;;;5043924;28;20029;-76
2022/01/24 10:53:40;;;;;;;31.67;20.25;;;7.10;99.90;;;;;;5043009;28;20029;-76
2022/01/24 10:56:28;;;;;;;32.40;19.20;;;7.10;99.90;;;;;;5042948;28;20112;-76
2022/01/24 10:59:01;;;;;;;33.38;20.77;;;7.10;99.90;;;;;;5040544;28;20063;-76
2022/01/24 11:01:28;;;;;;;36.83;21.35;;;7.10;99.90;;;;;;5042029;28;20041;-76
2022/01/24 11:04:06;;;;;;;32.95;20.30;;;7.10;99.90;;;;;;5044073;28;20508;-76
2022/01/24 11:06:55;;;;;;;33.60;19.80;;;7.20;99.90;;;;;;5043554;28;20028;-76
2022/01/24 11:09:27;;;;;;;38.20;20.45;;;7.20;99.90;;;;;;5041356;28;20044;-74
2022/01/24 11:12:10;;;;;;;68.38;28.10;;;7.20;99.90;;;;;;5036258;28;20120;-72
2022/01/24 11:14:43;;;;;;;31.73;17.88;;;7.20;99.90;;;;;;5045641;28;20393;-72
2022/01/24 11:17:19;;;;;;;30.73;17.00;;;7.20;99.90;;;;;;5042360;28;20371;-73
2022/01/24 11:19:51;;;;;;;27.25;16.67;;;7.20;99.90;;;;;;5048599;28;20040;-73
2022/01/24 11:22:20;;;;;;;34.13;19.13;;;7.10;99.90;;;;;;5047882;28;20481;-73
2022/01/24 11:24:54;;;;;;;31.58;18.50;;;7.10;99.90;;;;;;5049918;28;20032;-73
2022/01/24 11:27:21;;;;;;;29.15;19.70;;;7.10;99.90;;;;;;5044680;28;20112;-72
2022/01/24 11:29:49;;;;;;;32.28;18.95;;;7.20;99.90;;;;;;5049016;28;20049;-73
2022/01/24 11:32:26;;;;;;;31.48;18.35;;;7.30;99.90;;;;;;5048157;28;20155;-72
2022/01/24 11:34:54;;;;;;;31.73;17.77;;;7.30;99.90;;;;;;5049680;28;20393;-71
2022/01/24 11:37:38;;;;;;;31.25;17.77;;;7.30;99.90;;;;;;5047450;28;20021;-71
2022/01/24 11:40:12;;;;;;;29.23;17.33;;;7.30;99.90;;;;;;5047894;28;20021;-71
2022/01/24 11:42:39;;;;;;;28.98;18.00;;;7.30;99.90;;;;;;5048828;28;20059;-71
2022/01/24 11:45:14;;;;;;;24.65;16.35;;;7.30;99.90;;;;;;5044438;28;20025;-73
2022/01/24 11:47:42;;;;;;;25.58;15.15;;;7.30;99.90;;;;;;5047204;28;20036;-73
2022/01/24 11:50:26;;;;;;;25.90;16.45;;;7.30;99.90;;;;;;5046891;28;20485;-74
2022/01/24 11:52:54;;;;;;;24.88;15.07;;;7.20;99.90;;;;;;5042301;28;20033;-76
2022/01/24 11:55:34;;;;;;;26.35;15.95;;;7.20;99.90;;;;;;5047612;28;20048;-75
2022/01/24 11:58:09;;;;;;;21.17;12.90;;;7.20;99.90;;;;;;5045543;28;20037;-75
2022/01/24 12:00:40;;;;;;;25.42;13.77;;;7.30;99.90;;;;;;5043229;28;20288;-76
2022/01/24 12:03:14;;;;;;;25.38;13.85;;;7.30;99.90;;;;;;5042161;28;20032;-74
2022/01/24 12:05:51;;;;;;;23.48;14.60;;;7.20;99.90;;;;;;5046495;28;20037;-73
2022/01/24 12:08:38;;;;;;;23.15;13.38;;;7.30;99.90;;;;;;5045025;28;20033;-73
2022/01/24 12:11:22;;;;;;;25.67;13.65;;;7.30;99.90;;;;;;5044084;28;20025;-73
2022/01/24 12:13:55;;;;;;;21.27;11.55;;;7.30;99.90;;;;;;5043541;28;20080;-74
2022/01/24 12:16:33;;;;;;;21.30;11.85;;;7.30;99.90;;;;;;5046155;28;20032;-73
2022/01/24 12:19:00;;;;;;;25.50;12.25;;;7.30;99.90;;;;;;5040874;28;20056;-73
2022/01/24 12:21:28;;;;;;;17.27;9.23;;;7.30;99.90;;;;;;5045813;28;20033;-76
2022/01/24 12:23:56;;;;;;;20.13;10.55;;;7.30;99.90;;;;;;5046952;28;20484;-74
2022/01/24 12:26:25;;;;;;;15.80;9.40;;;7.30;99.90;;;;;;5044262;28;20033;-74
2022/01/24 12:28:59;;;;;;;14.10;8.80;;;7.30;99.90;;;;;;5044492;28;20105;-73
2022/01/24 12:31:42;;;;;;;14.20;7.43;;;7.30;99.90;;;;;;5046454;28;20025;-75
2022/01/24 12:34:37;;;;;;;13.52;8.05;;;7.30;99.90;;;;;;5043421;28;20053;-74
2022/01/24 12:37:10;;;;;;;14.18;8.45;;;7.30;99.90;;;;;;5043195;28;20031;-75
2022/01/24 12:39:50;;;;;;;16.92;9.65;;;7.30;99.90;;;;;;5045905;28;20032;-76
2022/01/24 12:43:08;;;;;;;18.95;10.13;;;7.30;99.90;;;;;;5043967;28;20036;-76
2022/01/24 12:48:06;;;;;;;12.50;7.80;;;7.40;99.90;;;;;;5044542;28;20161;-74
2022/01/24 12:50:32;;;;;;;13.90;8.65;;;7.40;99.90;;;;;;5042907;28;20068;-74
2022/01/24 12:52:57;;;;;;;;;;;7.40;99.90;;;;;;5046285;28;20102;-74
2022/01/24 12:55:23;;;;;;;9.18;5.78;;;7.30;99.90;;;;;;5045561;28;20007;-72
2022/01/24 12:57:48;;;;;;;;;;;7.30;99.90;;;;;;5045658;28;20029;-75
2022/01/24 13:00:17;;;;;;;10.60;4.90;;;7.30;99.90;;;;;;5041955;28;19927;-75
2022/01/24 13:02:42;;;;;;;8.80;5.90;;;7.30;99.90;;;;;;5044393;28;20029;-75
2022/01/24 13:05:12;;;;;;;;;;;7.30;99.90;;;;;;5047952;28;20682;-76
2022/01/24 13:07:39;;;;;;;6.35;4.00;;;7.30;99.90;;;;;;5042090;28;19912;-76
2022/01/24 13:10:14;;;;;;;5.20;2.97;;;7.30;99.90;;;;;;5044246;28;20127;-74
2022/01/24 13:12:41;;;;;;;4.85;2.83;;;7.30;99.90;;;;;;5045668;28;20033;-73
2022/01/24 13:15:21;;;;;;;9.18;5.25;;;7.40;99.90;;;;;;5043000;28;20646;-74
2022/01/24 13:21:07;;;;;;;10.30;4.55;;;7.30;99.90;;;;;;5043489;28;20448;-73
2022/01/24 13:23:30;;;;;;;5.90;3.75;;;7.40;99.90;;;;;;5041061;28;20028;-75
2022/01/24 13:25:55;;;;;;;;;;;7.30;99.90;;;;;;5042738;28;20035;-75
2022/01/24 13:28:21;;;;;;;5.72;2.85;;;7.30;99.90;;;;;;5044583;28;19924;-74
2022/01/24 13:31:01;;;;;;;7.85;2.72;;;7.30;99.90;;;;;;5044718;28;20037;-73
2022/01/24 13:33:29;;;;;;;5.82;2.47;;;7.30;99.90;;;;;;5044963;28;20032;-73
2022/01/24 13:36:01;;;;;;;2.88;2.10;;;7.30;99.90;;;;;;5046733;28;20072;-73
2022/01/24 13:38:29;;;;;;;5.53;1.92;;;7.30;99.90;;;;;;5044179;28;20029;-76
2022/01/24 13:41:01;;;;;;;4.03;2.08;;;7.30;99.90;;;;;;5041910;28;20037;-72
2022/01/24 13:43:32;;;;;;;5.97;1.40;;;7.30;99.90;;;;;;5044805;28;20041;-73
2022/01/24 13:45:59;;;;;;;6.53;1.23;;;7.30;99.90;;;;;;5042495;28;20549;-72
2022/01/24 13:48:25;;;;;;;3.63;1.70;;;7.30;99.90;;;;;;5043014;28;20095;-77
2022/01/24 13:50:56;;;;;;;1.70;1.27;;;7.30;99.90;;;;;;5045457;28;20554;-76
2022/01/24 13:53:30;;;;;;;1.48;0.90;;;7.30;99.90;;;;;;5040295;28;20037;-76
2022/01/24 13:55:56;;;;;;;2.90;1.42;;;7.30;99.90;;;;;;5042390;28;20075;-71
2022/01/24 13:58:25;;;;;;;;;;;7.30;99.90;;;;;;5044636;28;20073;-71
2022/01/24 14:01:00;;;;;;;6.55;2.03;;;7.30;99.90;;;;;;5042252;28;19962;-72
2022/01/24 14:03:27;;;;;;;3.08;1.73;;;7.30;99.90;;;;;;5044511;28;20061;-73
2022/01/24 14:06:26;;;;;;;5.50;2.80;;;7.30;99.90;;;;;;5043325;28;20048;-73
2022/01/24 14:09:09;;;;;;;4.60;2.55;;;7.30;99.90;;;;;;5023006;28;20085;-73
2022/01/24 14:11:47;;;;;;;4.32;2.35;;;7.30;99.90;;;;;;5044583;28;20094;-73
2022/01/24 14:14:18;;;;;;;5.40;2.15;;;7.30;99.90;;;;;;5044369;28;20052;-73
2022/01/24 14:17:02;;;;;;;5.97;1.42;;;7.30;99.90;;;;;;5044237;28;20041;-73
2022/01/24 14:19:32;;;;;;;7.43;2.00;;;7.30;99.90;;;;;;5043335;28;20044;-73
2022/01/24 14:22:10;;;;;;;5.95;1.35;;;7.30;99.90;;;;;;5042606;28;20036;-73
2022/01/24 14:24:46;;;;;;;7.43;2.20;;;7.30;99.90;;;;;;5042982;28;20402;-73
2022/01/24 14:27:13;;;;;;;;;;;7.30;99.90;;;;;;5042431;28;20108;-74
2022/01/24 14:29:39;;;;;;;2.75;2.17;;;7.20;99.90;;;;;;5042408;28;19909;-74
2022/01/24 14:32:11;;;;;;;;;;;7.20;99.90;;;;;;5043251;28;20453;-74
2022/01/24 14:34:37;;;;;;;5.57;2.72;;;7.20;99.90;;;;;;5044736;28;19917;-75
2022/01/24 14:37:05;;;;;;;10.45;2.53;;;7.20;99.90;;;;;;5041815;28;20147;-74
2022/01/24 14:39:31;;;;;;;7.43;2.47;;;7.20;99.90;;;;;;5040193;28;20116;-74
2022/01/24 14:41:58;;;;;;;5.55;2.78;;;7.20;99.90;;;;;;5042953;28;20115;-73
2022/01/24 14:47:08;;;;;;;8.82;3.55;;;7.20;99.90;;;;;;5043337;28;20413;-73
2022/01/24 14:49:36;;;;;;;4.13;1.42;;;7.20;99.90;;;;;;5046356;28;20035;-73
2022/01/24 14:52:06;;;;;;;3.38;2.10;;;7.20;99.90;;;;;;5048877;28;20516;-74
2022/01/24 14:54:35;;;;;;;5.32;2.33;;;7.10;99.90;;;;;;5047108;28;20025;-74
2022/01/24 14:57:03;;;;;;;4.35;1.80;;;7.10;99.90;;;;;;5047111;28;20028;-74
2022/01/24 14:59:30;;;;;;;3.38;1.85;;;7.10;99.90;;;;;;5047273;28;20131;-75
2022/01/24 15:01:56;;;;;;;5.72;2.10;;;7.10;99.90;;;;;;5045328;28;20709;-72
2022/01/24 15:04:23;;;;;;;3.03;1.60;;;7.10;99.90;;;;;;5047244;28;20041;-72
2022/01/24 15:06:51;;;;;;;3.25;1.90;;;7.10;99.90;;;;;;5048047;28;20402;-74
2022/01/24 15:09:20;;;;;;;4.47;2.40;;;7.00;99.90;;;;;;5044833;28;20029;-73
2022/01/24 15:11:46;;;;;;;3.97;2.40;;;7.00;99.90;;;;;;5047192;28;20468;-72